• Join FlightAware (Why Join?)
  • Login
  • US Flag 
06:36PM EDT


 

Airport Tracker/Info


-or-


 

Live Flight TrackerFlight Track Log ✈ SKW6306 ✈ 20-Jun-2013 ✈ CYXE - KDEN

Flight Track Log - Related Links

Times and Time Zones

All times are in EDT time to prevent confusion due to time zone crossing. See the SKW6306 flight status page for this flight to view local times or setup timezone preferences in your user account.

Time Position Orientation Groundspeed Altitude Reporting Facility
EDT Latitude Longitude Course Direction KTS MPH feet Rate Location/Type
04:34PM 52.1333 -106.6667 198° South 190 219 3,600  Level Winnipeg Center
04:36PM 51.8656 -106.8643 199° South  Level FlightAware Approximate
04:36PM 52.0167 -106.7167 195° South 230 265 8,100  Level Winnipeg Center
04:37PM 51.7638 -106.9182 197° South  Level FlightAware Approximate
04:37PM 51.9500 -106.7667 205° Southwest 270 311 10,400  Level Winnipeg Center
04:38PM 51.6614 -106.9693 197° South  Level FlightAware Approximate
04:38PM 51.8833 -106.8000 197° South 280 322 11,500  Level Winnipeg Center
04:39PM 51.5607 -107.0211 198° South  Level FlightAware Approximate
04:39PM 51.7833 -106.8667 202° Southwest 310 357 13,500  Level Winnipeg Center
04:40PM 51.7000 -106.9000 194° South 320 368 15,200 1,680 Climbing Winnipeg Center
04:41PM 51.6167 -106.9667 206° Southwest 330 380 16,900 1,500 Climbing Winnipeg Center
04:42PM 51.5167 -107.0000 192° South 330 380 18,200 1,380 Climbing Winnipeg Center
04:43PM 51.4333 -107.0500 201° Southwest 340 391 19,700 1,200 Climbing Winnipeg Center
04:44PM 51.3500 -107.1167 207° Southwest 350 403 20,700 900 Climbing Winnipeg Center
04:45PM 51.2500 -107.1833 203° Southwest 360 414 21,600 900 Climbing Winnipeg Center
04:46PM 51.1500 -107.2333 197° South 370 426 22,600 960 Climbing Winnipeg Center
04:47PM 51.0667 -107.2667 194° South 370 426 23,600 900 Climbing Winnipeg Center
04:48PM 50.9500 -107.3167 195° South 370 426 24,500 900 Climbing Winnipeg Center
04:49PM 50.8667 -107.3833 207° Southwest 380 437 25,400 660 Climbing Winnipeg Center
04:50PM 50.7833 -107.4500 207° Southwest 380 437 25,900 420 Climbing Winnipeg Center
04:51PM 50.6667 -107.5000 195° South 380 437 26,300 600 Climbing Winnipeg Center
04:52PM 50.5667 -107.5500 198° South 390 449 27,100 960 Climbing Winnipeg Center
04:53PM 50.4500 -107.6167 200° South 380 437 28,300 900 Climbing Winnipeg Center
04:54PM 50.3667 -107.6667 201° Southwest 370 426 28,900 540 Climbing Winnipeg Center
04:55PM 50.2667 -107.7167 198° South 370 426 29,400 360 Climbing Winnipeg Center
04:56PM 50.1833 -107.7333 187° South 370 426 29,700 300 Climbing Winnipeg Center
04:57PM 50.0500 -107.7500 185° South 370 426 30,000 180 Climbing Winnipeg Center
04:58PM 49.9500 -107.7500 180° South 380 437 30,100 60 Climbing Winnipeg Center
04:59PM 49.8500 -107.7667 186° South 390 449 30,200 300 Climbing Winnipeg Center
05:00PM 49.7333 -107.7833 185° South 390 449 30,700 360 Climbing Winnipeg Center
05:01PM 49.6333 -107.7833 180° South 390 449 31,000 300 Climbing Winnipeg Center
05:02PM 49.5333 -107.8167 192° South 390 449 31,300 300 Climbing Winnipeg Center
05:03PM 49.4333 -107.8167 180° South 390 449 31,600 300 Climbing Winnipeg Center
05:04PM 49.3333 -107.8167 180° South 380 437 32,000 300 Climbing Winnipeg Center
05:05PM 49.2000 -107.8500 189° South 380 437 32,300 360 Climbing Winnipeg Center
05:06PM 49.1000 -107.8500 180° South 380 437 32,800 300 Climbing Winnipeg Center
05:07PM 49.0167 -107.8500 180° South 370 426 33,000 60 Climbing Winnipeg Center
05:08PM 48.9000 -107.8833 191° South 370 426 33,000  Level Winnipeg Center
05:09PM 48.8000 -107.8833 180° South 370 426 33,000  Level Winnipeg Center
05:10PM 48.7000 -107.9167 192° South 380 437 33,000  Level Winnipeg Center
05:10PM 48.6794 -107.8747 127° Southeast 378 435 33,000  Level Salt Lake Center
05:11PM 48.5517 -107.8889 184° South 382 440 33,000  Level Salt Lake Center
05:12PM 48.4450 -107.9000 184° South 383 441 33,000  Level Salt Lake Center
05:13PM 48.3378 -107.9119 184° South 386 444 33,000  Level Salt Lake Center
05:14PM 48.2297 -107.9233 184° South 388 447 33,000  Level Salt Lake Center
05:15PM 48.1231 -107.9353 184° South 387 445 33,000  Level Salt Lake Center
05:16PM 48.0186 -107.9461 184° South 382 440 33,000  Level Salt Lake Center
05:17PM 47.8914 -107.9594 184° South 383 441 33,000  Level Salt Lake Center
05:18PM 47.7883 -107.9714 184° South 377 434 33,000 -60 Level Salt Lake Center
05:19PM 47.6844 -107.9808 184° South 375 432 32,900  Descending Salt Lake Center
05:20PM 47.5806 -107.9931 185° South 375 432 33,000  Climbing Salt Lake Center
05:21PM 47.4742 -107.9950 181° South 378 435 33,000  Level Salt Lake Center
05:22PM 47.3728 -107.9531 164° South 380 437 33,000  Level Salt Lake Center
05:24PM 47.2458 -107.9075 166° South 385 443 33,000  Level Salt Lake Center
05:25PM 47.1428 -107.8700 166° South 384 442 33,000  Level Salt Lake Center
05:26PM 47.0514 -107.8350 165° South 381 438 33,000  Level Salt Lake Center
05:27PM 46.9453 -107.7978 167° South 385 443 33,000  Level Salt Lake Center
05:28PM 46.8181 -107.7514 166° South 391 450 33,000  Level Salt Lake Center
05:29PM 46.7136 -107.7144 166° South 390 449 33,000  Level Salt Lake Center
05:30PM 46.5997 -107.6706 165° South 390 449 33,000  Level Salt Lake Center
05:31PM 46.4956 -107.6342 166° South 391 450 33,000  Level Salt Lake Center
05:32PM 46.3814 -107.5936 166° South 395 455 33,000  Level Salt Lake Center
05:33PM 46.2772 -107.5564 166° South 389 448 33,000  Level Salt Lake Center
05:34PM 46.1644 -107.5172 166° South 389 448 33,000  Level Salt Lake Center
05:35PM 46.0592 -107.4794 166° South 393 452 33,000  Level Salt Lake Center
05:36PM 45.9453 -107.4394 166° South 391 450 33,000  Level Salt Lake Center
05:37PM 45.8383 -107.4017 166° South 396 456 33,000  Level Salt Lake Center
05:38PM 45.7250 -107.3625 166° South 393 452 33,000  Level Salt Lake Center
05:39PM 45.6083 -107.3231 167° South 400 460 33,000  Level Salt Lake Center
05:40PM 45.5028 -107.2864 166° South 395 455 33,000  Level Salt Lake Center
05:41PM 45.3878 -107.2481 167° South 397 457 33,000  Level Salt Lake Center
05:42PM 45.2914 -107.2161 167° South 390 449 33,000  Level Salt Lake Center
05:43PM 45.1753 -107.1753 166° South 390 449 33,000  Level Salt Lake Center
05:44PM 45.0742 -107.1408 166° South 390 449 33,000  Level Salt Lake Center
05:45PM 44.9558 -107.1017 167° South 391 450 33,000  Level Salt Lake Center
05:46PM 44.8567 -107.0683 167° South 385 443 33,000  Level Salt Lake Center
05:47PM 44.7397 -107.0372 169° South 383 441 33,000  Level Salt Lake Center
05:48PM 44.6403 -107.0117 170° South 380 437 33,000  Level Salt Lake Center
05:49PM 44.5244 -106.9825 170° South 379 436 33,000  Level Salt Lake Center
05:50PM 44.4250 -106.9578 170° South 380 437 33,000  Level Salt Lake Center
05:51PM 44.3247 -106.9311 169° South 383 441 33,000  Level Salt Lake Center
05:52PM 44.2064 -106.9003 169° South 385 443 33,000  Level Salt Lake Center
05:54PM 44.1050 -106.8747 170° South 386 444 33,000  Level Salt Lake Center
05:55PM 43.9856 -106.8456 170° South 388 447 33,000  Level Salt Lake Center
05:56PM 43.8853 -106.8200 170° South 386 444 33,000  Level Salt Lake Center
05:57PM 43.7664 -106.7914 170° South 387 445 33,000  Level Salt Lake Center
05:58PM 43.6650 -106.7681 171° South 386 444 33,000  Level Salt Lake Center
05:59PM 43.5469 -106.7394 170° South 387 445 33,000  Level Salt Lake Center
06:00PM 43.4447 -106.7139 170° South 387 445 33,000  Level Salt Lake Center
06:01PM 43.3247 -106.6844 170° South 390 449 33,000  Level Salt Lake Center
06:02PM 43.2217 -106.6600 170° South 391 450 33,000  Level Salt Lake Center
06:03PM 43.1014 -106.6322 170° South 393 452 33,000  Level Salt Lake Center
06:04PM 42.9964 -106.6067 170° South 396 456 33,000  Level Salt Lake Center
06:05PM 42.8753 -106.5778 170° South 396 456 33,000  Level Salt Lake Center
06:06PM 42.7711 -106.5531 170° South 397 457 33,000  Level Salt Lake Center
06:07PM 42.6497 -106.5244 170° South 397 457 33,000  Level Salt Lake Center
06:08PM 42.5444 -106.4994 170° South 401 461 33,000  Level Salt Lake Center
06:09PM 42.3814 -106.4608 170° South 404 465 33,000  Level Denver Center
06:10PM 42.2758 -106.4350 170° South 405 466 33,000  Level Denver Center
06:11PM 42.1497 -106.4058 170° South 409 471 33,000  Level Denver Center
06:12PM 42.0447 -106.3819 170° South 403 464 33,000  Level Denver Center
06:14PM 41.9181 -106.3511 170° South 412 474 33,000  Level Denver Center
06:15PM 41.8117 -106.3278 171° South 408 470 33,000  Level Denver Center
06:16PM 41.6839 -106.2978 170° South 415 478 33,000 -360 Level Denver Center
06:17PM 41.5756 -106.2725 170° South 413 475 32,300 -1,260 Descending Denver Center
06:18PM 41.4464 -106.2400 169° South 421 484 30,400 -1,680 Descending Denver Center
06:19PM 41.3394 -106.1944 162° South 422 486 28,900 -1,620 Descending Denver Center
06:20PM 41.2156 -106.1417 162° South 420 483 27,100 -960 Descending Denver Center
06:21PM 41.1122 -106.0953 161° South 413 475 27,000 -120 Descending Denver Center
06:23PM 40.8981 -105.9706 156° South 416 479 26,900 -540 Descending Denver Center
06:24PM 40.8250 -105.8419 127° Southeast 438 504 25,400 -1,500 Descending Denver Center
06:25PM 40.7564 -105.7136 125° Southeast 429 494 23,900 -1,620 Descending Denver Center
06:26PM 40.6778 -105.5772 127° Southeast 390 449 22,100 -1,620 Descending Denver Center
06:27PM 40.6119 -105.4564 126° Southeast 402 463 20,600 -1,500 Descending Denver Center
06:28PM 40.5483 -105.3400 126° Southeast 394 453 19,100 -1,380 Descending Denver Center
06:29PM 40.4906 -105.2289 124° Southeast 372 428 17,800 -1,320 Descending Denver Center
06:30PM 40.4519 -105.0897 110° East 371 427 16,400 -1,320 Descending Denver Center
06:31PM 40.4139 -104.9611 111° Southeast 354 407 15,100 -1,260 Descending Denver Center
06:32PM 40.3444 -104.8906 142° Southeast 325 374 13,900 -1,260 Descending Denver Center
06:33PM 40.2692 -104.8497 158° South 295 339 12,600 -1,860 Descending Denver Center
06:34PM 40.1889 -104.8064 158° South 292 336 10,100 -2,340 Descending Denver Center
06:35PM 40.1142 -104.7661 158° South 291 335 7,800 -2,280 Descending Denver Center